createdAt,value
2023-01-10T00:01:29.082Z,8.13
2023-01-10T00:04:30.906Z,8.40
2023-01-10T00:07:32.500Z,9.70
2023-01-10T00:10:34.439Z,9.57
2023-01-10T00:13:36.046Z,9.37
2023-01-10T00:16:39.419Z,9.90
2023-01-10T00:19:40.984Z,9.10
2023-01-10T00:22:42.888Z,10.80
2023-01-10T00:25:44.708Z,9.17
2023-01-10T00:28:46.299Z,8.00
2023-01-10T00:31:48.689Z,11.67
2023-01-10T00:34:50.406Z,12.00
2023-01-10T00:37:57.710Z,11.80
2023-01-10T00:40:59.494Z,10.03
2023-01-10T00:44:01.087Z,12.57
2023-01-10T00:47:02.752Z,12.17
2023-01-10T00:50:08.722Z,14.70
2023-01-10T00:53:10.318Z,16.27
2023-01-10T00:56:11.985Z,10.90
2023-01-10T00:59:13.647Z,14.83
2023-01-10T01:02:15.463Z,15.20
2023-01-10T01:05:17.494Z,16.23
2023-01-10T01:08:19.369Z,14.10
2023-01-10T01:11:20.946Z,12.30
2023-01-10T01:14:23.373Z,10.73
2023-01-10T01:17:25.040Z,13.73
2023-01-10T01:20:27.037Z,11.70
2023-01-10T01:23:29.189Z,13.30
2023-01-10T01:26:30.856Z,12.87
2023-01-10T01:29:43.059Z,12.80
2023-01-10T01:32:45.154Z,11.10
2023-01-10T01:35:48.053Z,11.87
2023-01-10T01:38:49.672Z,12.30
2023-01-10T01:41:57.257Z,12.63
2023-01-10T01:45:11.360Z,12.23
2023-01-10T01:48:25.304Z,11.80
2023-01-10T01:51:28.542Z,11.27
2023-01-10T01:54:30.588Z,10.93
2023-01-10T01:57:32.981Z,10.03
2023-01-10T02:00:35.461Z,10.90
2023-01-10T02:03:38.149Z,10.10
2023-01-10T02:06:40.455Z,10.27
2023-01-10T02:09:56.693Z,10.30
2023-01-10T02:13:01.472Z,10.20
2023-01-10T02:16:03.197Z,9.70
2023-01-10T02:19:09.157Z,9.37
2023-01-10T02:22:10.783Z,8.90
2023-01-10T02:25:12.482Z,8.60
2023-01-10T02:28:14.034Z,11.30
2023-01-10T02:31:34.145Z,10.50
2023-01-10T02:34:43.013Z,15.03
2023-01-10T02:37:50.758Z,11.60
2023-01-10T02:40:57.300Z,11.10
2023-01-10T02:44:28.418Z,7.30
2023-01-10T02:47:37.311Z,7.17
2023-01-10T02:50:41.878Z,6.37
2023-01-10T02:53:47.070Z,7.53
2023-01-10T02:56:57.525Z,6.47
2023-01-10T03:00:07.654Z,8.40
2023-01-10T03:03:15.152Z,8.77
2023-01-10T03:06:16.782Z,7.83
2023-01-10T03:09:22.171Z,8.93
2023-01-10T03:12:27.240Z,8.43
2023-01-10T03:15:30.480Z,9.77
2023-01-10T03:18:33.791Z,12.03
2023-01-10T03:21:36.198Z,11.33
2023-01-10T03:24:41.966Z,11.00
2023-01-10T03:28:05.315Z,9.53
2023-01-10T03:31:10.174Z,9.80
2023-01-10T03:34:12.209Z,8.83
2023-01-10T03:37:14.217Z,8.87
2023-01-10T03:40:22.725Z,11.13
2023-01-10T03:43:58.281Z,11.43
2023-01-10T03:47:06.092Z,10.40
2023-01-10T03:50:13.255Z,11.33
2023-01-10T03:53:15.576Z,11.87
2023-01-10T03:56:17.193Z,11.23
2023-01-10T03:59:28.324Z,11.83
2023-01-10T04:02:31.465Z,12.60
2023-01-10T04:05:33.009Z,12.93
2023-01-10T04:08:34.584Z,13.17
2023-01-10T04:11:36.236Z,12.70
2023-01-10T04:14:37.998Z,12.73
2023-01-10T04:17:40.605Z,12.53
2023-01-10T04:20:42.595Z,10.93
2023-01-10T04:23:46.828Z,11.27
2023-01-10T04:26:48.854Z,10.73
2023-01-10T04:29:53.695Z,11.70
2023-01-10T04:32:56.027Z,11.90
2023-01-10T04:35:57.820Z,10.43
2023-01-10T04:38:59.733Z,12.97
2023-01-10T04:42:01.496Z,10.83
2023-01-10T04:45:03.424Z,12.13
2023-01-10T04:48:05.532Z,11.63
2023-01-10T04:51:07.189Z,11.67
2023-01-10T04:54:08.833Z,10.97
2023-01-10T04:57:10.557Z,11.27
2023-01-10T05:00:12.750Z,11.77
2023-01-10T05:03:16.091Z,12.00
2023-01-10T05:06:18.048Z,14.50
2023-01-10T05:09:20.316Z,14.07
2023-01-10T05:12:21.914Z,14.50
2023-01-10T05:15:23.560Z,13.70
2023-01-10T05:18:25.952Z,12.30
2023-01-10T05:21:27.594Z,13.30
2023-01-10T05:24:29.277Z,15.33
2023-01-10T05:27:31.104Z,13.67
2023-01-10T05:30:32.713Z,14.20
2023-01-10T05:33:34.829Z,15.33
2023-01-10T05:36:36.408Z,15.37
2023-01-10T05:39:41.433Z,11.13
2023-01-10T05:42:43.101Z,11.40
2023-01-10T05:45:44.809Z,9.87
2023-01-10T05:48:46.367Z,10.03
2023-01-10T05:51:47.957Z,11.20
2023-01-10T05:54:49.541Z,10.03
2023-01-10T05:57:51.161Z,11.00
2023-01-10T06:00:54.138Z,11.73
2023-01-10T06:03:57.017Z,11.30
2023-01-10T06:07:01.591Z,11.60
2023-01-10T06:10:03.846Z,13.87
2023-01-10T06:13:05.501Z,15.37
2023-01-10T06:16:07.278Z,16.03
2023-01-10T06:19:09.456Z,14.97
2023-01-10T06:22:11.301Z,14.60
2023-01-10T06:25:13.555Z,13.37
2023-01-10T06:28:15.184Z,13.13
2023-01-10T06:31:16.882Z,14.80
2023-01-10T06:34:18.604Z,10.43
2023-01-10T06:37:20.355Z,10.67
2023-01-10T06:40:21.989Z,12.23
2023-01-10T06:43:25.776Z,9.43
2023-01-10T06:46:27.680Z,8.87
2023-01-10T06:49:30.017Z,10.30
2023-01-10T06:52:31.703Z,11.33
2023-01-10T06:55:33.334Z,10.67
2023-01-10T06:58:35.487Z,10.27
2023-01-10T07:01:37.199Z,10.13
2023-01-10T07:04:38.845Z,10.47
2023-01-10T07:07:40.422Z,10.37
2023-01-10T07:10:42.817Z,8.20
2023-01-10T07:13:44.518Z,7.73
2023-01-10T07:16:46.179Z,10.43
2023-01-10T07:19:47.798Z,10.07
2023-01-10T07:22:56.515Z,10.40
2023-01-10T07:25:59.220Z,9.13
2023-01-10T07:29:00.885Z,11.30
2023-01-10T07:32:02.680Z,11.27
2023-01-10T07:35:04.524Z,11.10
2023-01-10T07:38:06.228Z,11.80
2023-01-10T07:41:07.983Z,11.80
2023-01-10T07:44:09.640Z,12.13
2023-01-10T07:47:11.516Z,11.70
2023-01-10T07:50:13.141Z,11.60
2023-01-10T07:53:14.684Z,11.53
2023-01-10T07:56:16.241Z,10.20
2023-01-10T07:59:17.892Z,12.43
2023-01-10T08:02:19.619Z,10.70
2023-01-10T08:05:21.892Z,15.10
2023-01-10T08:08:23.527Z,13.73
2023-01-10T08:11:25.153Z,13.87
2023-01-10T08:14:26.888Z,15.13
2023-01-10T08:17:28.802Z,13.17
2023-01-10T08:20:31.093Z,14.07
2023-01-10T08:23:32.798Z,13.43
2023-01-10T08:26:34.605Z,11.57
2023-01-10T08:29:36.243Z,15.40
2023-01-10T08:32:37.897Z,16.50
2023-01-10T08:35:43.151Z,18.70
2023-01-10T08:38:45.384Z,14.90
2023-01-10T08:41:46.989Z,17.33
2023-01-10T08:44:48.598Z,17.40
2023-01-10T08:47:50.485Z,11.27
2023-01-10T08:50:52.099Z,12.20
2023-01-10T08:53:53.777Z,17.27
2023-01-10T08:56:55.323Z,9.97
2023-01-10T08:59:56.912Z,10.10
2023-01-10T09:02:58.717Z,13.03
2023-01-10T09:06:01.393Z,10.50
2023-01-10T09:09:03.435Z,10.67
2023-01-10T09:12:25.013Z,11.37
2023-01-10T09:15:28.268Z,11.80
2023-01-10T09:18:29.903Z,14.03
2023-01-10T09:21:31.494Z,26.30
2023-01-10T09:24:33.045Z,21.73
2023-01-10T09:27:34.636Z,17.73
2023-01-10T09:30:36.436Z,16.33
2023-01-10T09:33:47.025Z,20.57
2023-01-10T09:36:49.380Z,21.90
2023-01-10T09:39:52.968Z,20.67
2023-01-10T09:43:14.792Z,18.30
2023-01-10T09:46:16.515Z,17.67
2023-01-10T09:49:41.848Z,28.10
2023-01-10T09:52:46.422Z,20.37
2023-01-10T09:55:55.731Z,22.80
2023-01-10T09:58:59.189Z,16.23
2023-01-10T10:02:04.723Z,24.67
2023-01-10T10:05:24.552Z,20.73
2023-01-10T10:08:26.260Z,29.53
2023-01-10T10:11:27.819Z,28.60
2023-01-10T10:14:32.248Z,44.80
2023-01-10T10:17:33.908Z,18.43
2023-01-10T10:20:41.486Z,17.53
2023-01-10T10:23:43.056Z,20.30
2023-01-10T10:26:53.254Z,15.20
2023-01-10T10:29:54.813Z,22.10
2023-01-10T10:33:02.321Z,25.87
2023-01-10T10:36:09.091Z,27.13
2023-01-10T10:39:14.824Z,25.70
2023-01-10T10:42:17.726Z,25.03
2023-01-10T10:45:22.134Z,15.87
2023-01-10T10:48:27.095Z,18.67
2023-01-10T10:51:38.671Z,21.30
2023-01-10T10:54:40.281Z,27.33
2023-01-10T10:57:55.372Z,21.10
2023-01-10T11:01:01.682Z,15.83
2023-01-10T11:04:12.030Z,19.07
2023-01-10T11:07:16.615Z,17.03
2023-01-10T11:10:34.988Z,21.73
2023-01-10T11:13:43.385Z,19.13
2023-01-10T11:16:45.475Z,22.87
2023-01-10T11:19:56.433Z,28.43
2023-01-10T11:22:58.111Z,36.80
2023-01-10T11:26:00.464Z,25.17
2023-01-10T11:29:20.844Z,31.60
2023-01-10T11:32:39.195Z,39.33
2023-01-10T11:35:55.663Z,25.40
2023-01-10T11:39:04.486Z,27.67
2023-01-10T11:42:29.777Z,40.33
2023-01-10T11:45:33.436Z,48.57
2023-01-10T11:49:06.789Z,38.80
2023-01-10T11:52:27.357Z,100.67
2023-01-10T11:55:30.251Z,64.80
2023-01-10T11:58:33.175Z,75.47
2023-01-10T12:01:37.930Z,40.77
2023-01-10T12:04:41.233Z,42.73
2023-01-10T12:07:59.299Z,45.57
2023-01-10T12:11:08.279Z,41.60
2023-01-10T12:14:19.457Z,42.83
2023-01-10T12:17:37.474Z,39.33
2023-01-10T12:20:46.135Z,32.60
2023-01-10T12:23:49.392Z,39.00
2023-01-10T12:26:53.685Z,29.77
2023-01-10T12:30:07.359Z,34.83
2023-01-10T12:33:17.347Z,26.90
2023-01-10T12:36:26.677Z,27.80
2023-01-10T12:39:31.102Z,31.60
2023-01-10T12:43:02.129Z,31.83
2023-01-10T12:46:25.106Z,49.13
2023-01-10T12:49:34.923Z,27.27
2023-01-10T12:52:45.622Z,25.93
2023-01-10T12:55:47.739Z,22.97
2023-01-10T12:58:52.631Z,25.27
2023-01-10T13:01:56.744Z,26.93
2023-01-10T13:05:00.943Z,32.20
2023-01-10T13:08:17.599Z,34.33
2023-01-10T13:11:22.775Z,38.13
2023-01-10T13:14:31.414Z,33.83
2023-01-10T13:17:33.097Z,36.77
2023-01-10T13:20:39.131Z,35.60
2023-01-10T13:23:47.892Z,31.87
2023-01-10T13:27:00.007Z,32.77
2023-01-10T13:30:02.506Z,33.60
2023-01-10T13:33:06.049Z,39.13
2023-01-10T13:36:19.475Z,44.53
2023-01-10T13:39:21.079Z,48.00
2023-01-10T13:42:44.294Z,72.40
2023-01-10T13:45:45.945Z,74.90
2023-01-10T13:48:50.738Z,56.97
2023-01-10T13:52:15.429Z,31.93
2023-01-10T13:55:28.689Z,27.87
2023-01-10T13:58:58.360Z,52.50
2023-01-10T14:02:19.709Z,39.00
2023-01-10T14:05:24.078Z,27.13
2023-01-10T14:08:25.794Z,30.80
2023-01-10T14:11:30.111Z,31.17
2023-01-10T14:14:38.165Z,26.73
2023-01-10T14:17:40.350Z,20.30
2023-01-10T14:20:42.439Z,16.70
2023-01-10T14:23:48.629Z,16.63
2023-01-10T14:26:50.677Z,15.87
2023-01-10T14:29:58.002Z,15.17
2023-01-10T14:33:02.263Z,14.73
2023-01-10T14:36:07.702Z,13.43
2023-01-10T14:39:13.841Z,13.67
2023-01-10T14:42:16.741Z,13.70
2023-01-10T14:45:37.256Z,14.87
2023-01-10T14:48:46.403Z,11.47
2023-01-10T14:51:50.988Z,16.70
2023-01-10T14:55:12.349Z,11.17
2023-01-10T14:58:17.081Z,12.47
2023-01-10T15:01:24.633Z,10.53
2023-01-10T15:04:28.295Z,9.27
2023-01-10T15:07:29.985Z,8.80
2023-01-10T15:10:32.760Z,10.20
2023-01-10T15:13:36.677Z,9.57
2023-01-10T15:16:40.201Z,11.00
2023-01-10T15:19:41.886Z,13.23
2023-01-10T15:23:00.899Z,12.37
2023-01-10T15:26:04.311Z,12.93
2023-01-10T15:29:06.081Z,9.93
2023-01-10T15:32:12.123Z,14.10
2023-01-10T15:35:17.815Z,9.43
2023-01-10T15:38:24.123Z,9.20
2023-01-10T15:41:26.518Z,18.27
2023-01-10T15:44:45.070Z,16.60
2023-01-10T15:47:49.876Z,10.60
2023-01-10T15:51:04.310Z,8.70
2023-01-10T15:54:25.900Z,13.87
2023-01-10T15:57:33.031Z,11.90
2023-01-10T16:00:34.743Z,17.13
2023-01-10T16:03:38.287Z,11.83
2023-01-10T16:06:40.126Z,9.40
2023-01-10T16:09:41.833Z,10.20
2023-01-10T16:13:02.618Z,8.63
2023-01-10T16:16:08.462Z,11.87
2023-01-10T16:19:10.213Z,11.43
2023-01-10T16:22:13.494Z,11.87
2023-01-10T16:25:27.456Z,9.13
2023-01-10T16:28:33.084Z,11.30
2023-01-10T16:31:34.721Z,12.67
2023-01-10T16:34:36.290Z,8.27
2023-01-10T16:37:37.861Z,10.47
2023-01-10T16:40:41.007Z,12.67
2023-01-10T16:43:42.585Z,10.40
2023-01-10T16:46:44.123Z,16.47
2023-01-10T16:49:46.972Z,10.50
2023-01-10T16:52:48.617Z,16.47
2023-01-10T16:55:51.771Z,23.23
2023-01-10T16:58:54.574Z,16.63
2023-01-10T17:01:57.527Z,11.53
2023-01-10T17:04:59.417Z,9.33
2023-01-10T17:08:01.018Z,11.03
2023-01-10T17:11:06.528Z,8.37
2023-01-10T17:14:12.195Z,8.93
2023-01-10T17:17:13.788Z,9.47
2023-01-10T17:20:15.905Z,9.87
2023-01-10T17:23:17.940Z,13.17
2023-01-10T17:26:19.998Z,13.43
2023-01-10T17:29:23.323Z,14.77
2023-01-10T17:32:25.061Z,13.87
2023-01-10T17:35:32.471Z,13.47
2023-01-10T17:38:34.203Z,12.67
2023-01-10T17:41:35.926Z,6.27
2023-01-10T17:44:37.846Z,8.93
2023-01-10T17:47:39.556Z,16.23
2023-01-10T17:50:41.657Z,7.20
2023-01-10T17:53:43.306Z,7.00
2023-01-10T17:56:44.917Z,11.03
2023-01-10T17:59:46.549Z,10.60
2023-01-10T18:02:48.328Z,11.67
2023-01-10T18:05:50.669Z,9.40
2023-01-10T18:08:52.897Z,8.00
2023-01-10T18:11:54.679Z,11.70
2023-01-10T18:14:56.301Z,10.13
2023-01-10T18:17:58.000Z,9.40
2023-01-10T18:21:02.239Z,9.97
2023-01-10T18:24:04.125Z,8.80
2023-01-10T18:27:05.698Z,12.40
2023-01-10T18:30:07.776Z,9.97
2023-01-10T18:33:09.437Z,8.20
2023-01-10T18:36:15.258Z,7.70
2023-01-10T18:39:16.840Z,8.20
2023-01-10T18:42:18.491Z,9.47
2023-01-10T18:45:20.481Z,10.87
2023-01-10T18:48:23.927Z,13.83
2023-01-10T18:51:27.386Z,17.20
2023-01-10T18:54:29.127Z,12.80
2023-01-10T18:57:32.543Z,8.70
2023-01-10T19:00:34.218Z,7.83
2023-01-10T19:03:36.179Z,8.97
2023-01-10T19:06:37.847Z,8.80
2023-01-10T19:09:39.421Z,9.97
2023-01-10T19:12:42.367Z,12.23
2023-01-10T19:15:44.018Z,10.70
2023-01-10T19:18:53.224Z,9.67
2023-01-10T19:21:54.800Z,6.47
2023-01-10T19:24:56.428Z,3.50
2023-01-10T19:27:57.980Z,4.83
2023-01-10T19:31:04.452Z,5.20
2023-01-10T19:34:06.714Z,5.70
2023-01-10T19:37:08.321Z,5.93
2023-01-10T19:40:10.238Z,8.00
2023-01-10T19:43:11.853Z,7.43
2023-01-10T19:46:13.862Z,7.57
2023-01-10T19:49:17.767Z,5.70
2023-01-10T19:52:19.332Z,4.60
2023-01-10T19:55:22.247Z,5.33
2023-01-10T19:58:23.919Z,4.03
2023-01-10T20:01:27.299Z,8.20
2023-01-10T20:04:28.986Z,4.83
2023-01-10T20:07:30.645Z,5.43
2023-01-10T20:10:32.397Z,4.50
2023-01-10T20:13:35.637Z,4.50
2023-01-10T20:16:37.261Z,3.73
2023-01-10T20:19:40.676Z,4.00
2023-01-10T20:22:42.626Z,5.17
2023-01-10T20:25:45.239Z,6.23
2023-01-10T20:28:48.002Z,9.97
2023-01-10T20:31:52.755Z,12.30
2023-01-10T20:34:54.386Z,11.27
2023-01-10T20:37:56.012Z,9.10
2023-01-10T20:40:58.102Z,14.80
2023-01-10T20:44:00.129Z,17.73
2023-01-10T20:47:01.733Z,11.10
2023-01-10T20:50:03.520Z,7.80
2023-01-10T20:53:05.209Z,11.47
2023-01-10T20:56:08.387Z,16.13
2023-01-10T20:59:10.014Z,19.57
2023-01-10T21:02:11.712Z,17.80
2023-01-10T21:05:13.384Z,15.53
2023-01-10T21:08:14.915Z,14.20
2023-01-10T21:11:17.192Z,13.23
2023-01-10T21:14:18.797Z,12.60
2023-01-10T21:17:20.799Z,14.57
2023-01-10T21:20:22.399Z,12.10
2023-01-10T21:23:25.658Z,12.23
2023-01-10T21:26:27.281Z,11.30
2023-01-10T21:29:28.927Z,14.07
2023-01-10T21:32:30.504Z,12.43
2023-01-10T21:35:32.725Z,10.33
2023-01-10T21:38:36.329Z,10.70
2023-01-10T21:41:56.601Z,9.07
2023-01-10T21:44:58.307Z,9.90
2023-01-10T21:47:59.966Z,10.33
2023-01-10T21:51:01.582Z,8.47
2023-01-10T21:54:03.310Z,10.37
2023-01-10T21:57:05.087Z,11.60
2023-01-10T22:00:07.055Z,13.93
2023-01-10T22:03:13.099Z,11.37
2023-01-10T22:06:14.748Z,10.83
2023-01-10T22:09:16.480Z,11.20
2023-01-10T22:12:18.698Z,10.23
2023-01-10T22:15:20.916Z,10.00
2023-01-10T22:18:22.550Z,11.00
2023-01-10T22:21:24.144Z,12.83
2023-01-10T22:24:25.753Z,18.97
2023-01-10T22:27:28.733Z,16.93
2023-01-10T22:30:30.328Z,12.33
2023-01-10T22:33:33.217Z,10.93
2023-01-10T22:36:34.931Z,12.30
2023-01-10T22:39:36.493Z,12.67
2023-01-10T22:42:38.177Z,12.60
2023-01-10T22:45:42.995Z,13.00
2023-01-10T22:48:44.826Z,14.17
2023-01-10T22:51:46.492Z,14.60
2023-01-10T22:54:48.109Z,15.23
2023-01-10T22:57:49.730Z,14.90
2023-01-10T23:00:51.673Z,10.17
2023-01-10T23:03:53.329Z,15.00
2023-01-10T23:06:56.784Z,13.17
2023-01-10T23:09:58.468Z,15.07
2023-01-10T23:13:02.123Z,15.80
2023-01-10T23:16:03.850Z,16.40
2023-01-10T23:19:05.453Z,16.70
2023-01-10T23:22:07.073Z,16.03
2023-01-10T23:25:08.933Z,13.50
2023-01-10T23:28:10.567Z,12.50
2023-01-10T23:31:12.667Z,12.13
2023-01-10T23:34:14.287Z,10.97
2023-01-10T23:37:15.869Z,10.20
2023-01-10T23:40:17.603Z,11.57
2023-01-10T23:43:19.248Z,10.03
2023-01-10T23:46:21.320Z,10.70
2023-01-10T23:49:22.953Z,11.43
2023-01-10T23:52:24.614Z,12.33
2023-01-10T23:55:26.221Z,12.67
2023-01-10T23:58:27.964Z,14.10
